Terminal Aerodrome Forecast
Issued by NWS Charleston, WV

Current Version | Previous Version | Text Only | Print | Product List | Glossary Off
Versions: 1 2 3 4 5 6 7 8 9 10 11 12 13 14 15 16 17 18 19 20 21

009
FTUS41 KRLX 220903 AAA
TAFPKB
TAF AMD
KPKB 220903Z 2209/2306 02006KT P6SM -SHRA OVC050
     FM221400 02007KT P6SM OVC030
     FM221600 02008KT 6SM SHRA OVC030
     FM221800 02009KT 5SM SHRA OVC015
     FM222100 04008KT 6SM SHRA OVC020
     FM222300 03005KT P6SM OVC035=

USA.gov is the U.S. government's official web portal to all federal, state and local government web resources and services.